LOT3EM EDDL-EPWA
Flight info
| Callsign | LOT3EM |
|---|---|
| Flight time | 1h 21m |
| Altitude | 37000 |
| Route | MEVEL1Z MEVEL L179 MISRI Z851 ROBEG DCT SUBIX DCT OBOKU P150 BIMPA |
| Aircraft | B738/M-SDE2E3FGIJ1RWY/LB1 |
Departure
| Time | 2026-05-06 19:37 |
|---|---|
| Airport | Düsseldorf Airport (EDDL) |
Arrival
| Time | 2026-05-06 20:58 |
|---|---|
| Airport | Warsaw Chopin Airport (EPWA) |
| Time | Latitude | Longitude | Altitude | Speed | Heading |
|---|---|---|---|---|---|
| 2026-05-06 18:48 | 51.28335 | 6.77073 | 128 ft | 0 kts | 142° |
| 2026-05-06 19:17 | 51.28347 | 6.77058 | 124 ft | 3 kts | 142° |
| 2026-05-06 19:17 | 51.28366 | 6.77039 | 125 ft | 4 kts | 167° |
| 2026-05-06 19:18 | 51.28390 | 6.77043 | 123 ft | 4 kts | 211° |
| 2026-05-06 19:18 | 51.28410 | 6.77071 | 125 ft | 4 kts | 231° |
| 2026-05-06 19:18 | 51.28414 | 6.77079 | 123 ft | 1 kts | 233° |
| 2026-05-06 19:22 | 51.28413 | 6.77078 | 123 ft | 2 kts | 232° |
| 2026-05-06 19:22 | 51.28385 | 6.77018 | 126 ft | 9 kts | 233° |
| 2026-05-06 19:23 | 51.28348 | 6.76919 | 125 ft | 12 kts | 258° |
| 2026-05-06 19:23 | 51.28355 | 6.76776 | 126 ft | 14 kts | 283° |
| 2026-05-06 19:23 | 51.28412 | 6.76646 | 124 ft | 15 kts | 277° |
| 2026-05-06 19:23 | 51.28360 | 6.76505 | 123 ft | 15 kts | 233° |
| 2026-05-06 19:24 | 51.28300 | 6.76379 | 124 ft | 14 kts | 233° |
| 2026-05-06 19:24 | 51.28242 | 6.76258 | 127 ft | 13 kts | 233° |
| 2026-05-06 19:24 | 51.28187 | 6.76142 | 128 ft | 13 kts | 232° |
| 2026-05-06 19:24 | 51.28127 | 6.76015 | 129 ft | 17 kts | 232° |
| 2026-05-06 19:25 | 51.28052 | 6.75857 | 127 ft | 18 kts | 233° |
| 2026-05-06 19:25 | 51.27979 | 6.75705 | 126 ft | 17 kts | 232° |
| 2026-05-06 19:25 | 51.27919 | 6.75578 | 126 ft | 14 kts | 233° |
| 2026-05-06 19:25 | 51.27861 | 6.75459 | 122 ft | 13 kts | 233° |
| 2026-05-06 19:26 | 51.27856 | 6.75339 | 122 ft | 11 kts | 321° |
| 2026-05-06 19:26 | 51.27885 | 6.75314 | 124 ft | 0 kts | 335° |
| 2026-05-06 19:35 | 51.27886 | 6.75313 | 123 ft | 1 kts | 335° |
| 2026-05-06 19:35 | 51.27919 | 6.75288 | 119 ft | 12 kts | 334° |
| 2026-05-06 19:35 | 51.27980 | 6.75252 | 119 ft | 6 kts | 8° |
| 2026-05-06 19:35 | 51.27993 | 6.75269 | 117 ft | 0 kts | 51° |
| 2026-05-06 19:36 | 51.28015 | 6.75316 | 121 ft | 25 kts | 53° |
| 2026-05-06 19:36 | 51.28281 | 6.75869 | 128 ft | 99 kts | 52° |
| 2026-05-06 19:37 | 51.28841 | 6.77041 | 160 ft | 159 kts | 50° |
| 2026-05-06 19:37 | 51.29520 | 6.78485 | 958 ft | 159 kts | 51° |
| 2026-05-06 19:37 | 51.30183 | 6.79899 | 1912 ft | 158 kts | 50° |
| 2026-05-06 19:37 | 51.30839 | 6.81299 | 2750 ft | 161 kts | 51° |
| 2026-05-06 19:38 | 51.31523 | 6.82755 | 3601 ft | 165 kts | 51° |
| 2026-05-06 19:38 | 51.32273 | 6.84322 | 4058 ft | 191 kts | 51° |
| 2026-05-06 19:38 | 51.33141 | 6.86115 | 4424 ft | 212 kts | 50° |
| 2026-05-06 19:38 | 51.34042 | 6.88064 | 4792 ft | 231 kts | 53° |
| 2026-05-06 19:39 | 51.35185 | 6.90002 | 5132 ft | 252 kts | 28° |
| 2026-05-06 19:39 | 51.36838 | 6.91037 | 5945 ft | 257 kts | 13° |
| 2026-05-06 19:39 | 51.38599 | 6.91552 | 6891 ft | 258 kts | 9° |
| 2026-05-06 19:39 | 51.40394 | 6.91970 | 7761 ft | 263 kts | 8° |
| 2026-05-06 19:40 | 51.42221 | 6.92403 | 8619 ft | 268 kts | 8° |
| 2026-05-06 19:40 | 51.44077 | 6.92870 | 9504 ft | 272 kts | 9° |
| 2026-05-06 19:40 | 51.45907 | 6.93727 | 10254 ft | 282 kts | 30° |
| 2026-05-06 19:40 | 51.47398 | 6.95967 | 10517 ft | 309 kts | 50° |
| 2026-05-06 19:41 | 51.48734 | 6.98817 | 10883 ft | 328 kts | 52° |
| 2026-05-06 19:41 | 51.50093 | 7.01826 | 11586 ft | 335 kts | 52° |
| 2026-05-06 19:41 | 51.51466 | 7.04874 | 12415 ft | 339 kts | 52° |
| 2026-05-06 19:41 | 51.52862 | 7.07948 | 13226 ft | 343 kts | 52° |
| 2026-05-06 19:42 | 51.54313 | 7.11115 | 13972 ft | 348 kts | 52° |
| 2026-05-06 19:42 | 51.55740 | 7.14207 | 14612 ft | 354 kts | 52° |
| 2026-05-06 19:42 | 51.57224 | 7.17413 | 15258 ft | 360 kts | 52° |
| 2026-05-06 19:42 | 51.58734 | 7.20664 | 15919 ft | 366 kts | 52° |
| 2026-05-06 19:43 | 51.60269 | 7.23968 | 16565 ft | 372 kts | 52° |
| 2026-05-06 19:43 | 51.61828 | 7.27327 | 17203 ft | 378 kts | 52° |
| 2026-05-06 19:43 | 51.63410 | 7.30735 | 17844 ft | 383 kts | 52° |
| 2026-05-06 19:43 | 51.65018 | 7.34202 | 18435 ft | 389 kts | 52° |
| 2026-05-06 19:44 | 51.66643 | 7.37712 | 19060 ft | 392 kts | 52° |
| 2026-05-06 19:44 | 51.68279 | 7.41250 | 19695 ft | 394 kts | 52° |
| 2026-05-06 19:44 | 51.69918 | 7.44799 | 20308 ft | 397 kts | 52° |
| 2026-05-06 19:44 | 51.71573 | 7.48387 | 20895 ft | 401 kts | 52° |
| 2026-05-06 19:45 | 51.73240 | 7.52008 | 21485 ft | 404 kts | 53° |
| 2026-05-06 19:45 | 51.74919 | 7.55659 | 22055 ft | 408 kts | 53° |
| 2026-05-06 19:45 | 51.76595 | 7.59308 | 22610 ft | 411 kts | 53° |
| 2026-05-06 19:45 | 51.78302 | 7.63031 | 23168 ft | 414 kts | 53° |
| 2026-05-06 19:46 | 51.80021 | 7.66785 | 23673 ft | 418 kts | 53° |
| 2026-05-06 19:46 | 51.81754 | 7.70573 | 24136 ft | 420 kts | 53° |
| 2026-05-06 19:46 | 51.83497 | 7.74390 | 24607 ft | 423 kts | 53° |
| 2026-05-06 19:46 | 51.85246 | 7.78228 | 25049 ft | 426 kts | 53° |
| 2026-05-06 19:47 | 51.87008 | 7.82098 | 25484 ft | 429 kts | 53° |
| 2026-05-06 19:47 | 51.88782 | 7.86001 | 25910 ft | 432 kts | 53° |
| 2026-05-06 19:47 | 51.90565 | 7.89932 | 26345 ft | 434 kts | 54° |
| 2026-05-06 19:47 | 51.92355 | 7.93882 | 26761 ft | 437 kts | 54° |
| 2026-05-06 19:48 | 51.94160 | 7.97870 | 27173 ft | 439 kts | 54° |
| 2026-05-06 19:48 | 51.95970 | 8.01879 | 27573 ft | 442 kts | 54° |
| 2026-05-06 19:48 | 51.97788 | 8.05910 | 27975 ft | 445 kts | 54° |
| 2026-05-06 19:48 | 51.99618 | 8.09972 | 28336 ft | 447 kts | 54° |
| 2026-05-06 19:49 | 52.01458 | 8.14065 | 28716 ft | 450 kts | 54° |
| 2026-05-06 19:49 | 52.03308 | 8.18185 | 29077 ft | 452 kts | 54° |
| 2026-05-06 19:49 | 52.05163 | 8.22322 | 29430 ft | 455 kts | 54° |
| 2026-05-06 19:49 | 52.06975 | 8.26790 | 29776 ft | 457 kts | 62° |
| 2026-05-06 19:50 | 52.08268 | 8.31281 | 30085 ft | 458 kts | 71° |
| 2026-05-06 19:50 | 52.09173 | 8.36238 | 30348 ft | 459 kts | 76° |
| 2026-05-06 19:50 | 52.09955 | 8.41282 | 30595 ft | 460 kts | 77° |
| 2026-05-06 19:50 | 52.10716 | 8.46327 | 30840 ft | 460 kts | 77° |
| 2026-05-06 19:51 | 52.11497 | 8.51465 | 31006 ft | 465 kts | 77° |
| 2026-05-06 19:51 | 52.12281 | 8.56530 | 31193 ft | 468 kts | 77° |
| 2026-05-06 19:51 | 52.13088 | 8.61665 | 31502 ft | 469 kts | 76° |
| 2026-05-06 19:51 | 52.13901 | 8.66802 | 31883 ft | 468 kts | 76° |
| 2026-05-06 19:52 | 52.14713 | 8.71927 | 32219 ft | 468 kts | 77° |
| 2026-05-06 19:52 | 52.15526 | 8.77071 | 32476 ft | 469 kts | 77° |
| 2026-05-06 19:52 | 52.16336 | 8.82223 | 32762 ft | 471 kts | 77° |
| 2026-05-06 19:52 | 52.17145 | 8.87385 | 33101 ft | 470 kts | 77° |
| 2026-05-06 19:53 | 52.17950 | 8.92542 | 33442 ft | 470 kts | 77° |
| 2026-05-06 19:53 | 52.18758 | 8.97709 | 33728 ft | 471 kts | 77° |
| 2026-05-06 19:53 | 52.19579 | 9.02876 | 33983 ft | 471 kts | 77° |
| 2026-05-06 19:53 | 52.20416 | 9.08119 | 34243 ft | 471 kts | 77° |
| 2026-05-06 19:54 | 52.21240 | 9.13295 | 34508 ft | 471 kts | 77° |
| 2026-05-06 19:54 | 52.22051 | 9.18408 | 34741 ft | 472 kts | 77° |
| 2026-05-06 19:54 | 52.22869 | 9.23599 | 34972 ft | 472 kts | 77° |
| 2026-05-06 19:54 | 52.23559 | 9.28826 | 35205 ft | 471 kts | 84° |
| 2026-05-06 19:55 | 52.23886 | 9.34061 | 35432 ft | 470 kts | 87° |
| 2026-05-06 19:55 | 52.24137 | 9.39376 | 35644 ft | 470 kts | 88° |
| 2026-05-06 19:55 | 52.24360 | 9.44709 | 35878 ft | 471 kts | 88° |
| 2026-05-06 19:55 | 52.24580 | 9.50028 | 36116 ft | 471 kts | 88° |
| 2026-05-06 19:56 | 52.24807 | 9.55351 | 36341 ft | 471 kts | 88° |
| 2026-05-06 19:56 | 52.25042 | 9.60684 | 36548 ft | 471 kts | 88° |
| 2026-05-06 19:56 | 52.25284 | 9.66031 | 36743 ft | 472 kts | 88° |
| 2026-05-06 19:56 | 52.25530 | 9.71378 | 36960 ft | 472 kts | 88° |
| 2026-05-06 19:57 | 52.25776 | 9.76721 | 37159 ft | 473 kts | 88° |
| 2026-05-06 19:57 | 52.26021 | 9.82064 | 37353 ft | 473 kts | 88° |
| 2026-05-06 19:57 | 52.26264 | 9.87428 | 37559 ft | 473 kts | 88° |
| 2026-05-06 19:57 | 52.26504 | 9.92775 | 37751 ft | 473 kts | 88° |
| 2026-05-06 19:58 | 52.26743 | 9.98158 | 37934 ft | 474 kts | 88° |
| 2026-05-06 19:58 | 52.26978 | 10.03512 | 38133 ft | 474 kts | 88° |
| 2026-05-06 19:58 | 52.27207 | 10.08806 | 38308 ft | 474 kts | 88° |
| 2026-05-06 19:58 | 52.27437 | 10.14172 | 38477 ft | 474 kts | 88° |
| 2026-05-06 19:59 | 52.27665 | 10.19537 | 38618 ft | 474 kts | 88° |
| 2026-05-06 19:59 | 52.27890 | 10.24919 | 38760 ft | 474 kts | 88° |
| 2026-05-06 19:59 | 52.28334 | 10.35685 | 38820 ft | 477 kts | 88° |
| 2026-05-06 20:00 | 52.28773 | 10.46561 | 38829 ft | 476 kts | 88° |
| 2026-05-06 20:00 | 52.29195 | 10.57277 | 38827 ft | 475 kts | 89° |
| 2026-05-06 20:01 | 52.29610 | 10.68034 | 38831 ft | 474 kts | 89° |
| 2026-05-06 20:01 | 52.30013 | 10.78781 | 38828 ft | 474 kts | 89° |
| 2026-05-06 20:02 | 52.30407 | 10.89523 | 38832 ft | 473 kts | 89° |
| 2026-05-06 20:02 | 52.30789 | 11.00190 | 38826 ft | 473 kts | 89° |
| 2026-05-06 20:03 | 52.31162 | 11.10914 | 38831 ft | 473 kts | 89° |
| 2026-05-06 20:03 | 52.31526 | 11.21651 | 38836 ft | 473 kts | 89° |
| 2026-05-06 20:04 | 52.31881 | 11.32396 | 38829 ft | 474 kts | 89° |
| 2026-05-06 20:04 | 52.32227 | 11.43160 | 38833 ft | 474 kts | 89° |
| 2026-05-06 20:05 | 52.32563 | 11.53927 | 38831 ft | 475 kts | 90° |
| 2026-05-06 20:05 | 52.32889 | 11.64715 | 38830 ft | 475 kts | 90° |
| 2026-05-06 20:06 | 52.33206 | 11.75511 | 38831 ft | 476 kts | 90° |
| 2026-05-06 20:06 | 52.33513 | 11.86319 | 38830 ft | 476 kts | 90° |
| 2026-05-06 20:07 | 52.33809 | 11.97062 | 38826 ft | 476 kts | 90° |
| 2026-05-06 20:07 | 52.34097 | 12.07883 | 38830 ft | 477 kts | 90° |
| 2026-05-06 20:08 | 52.34375 | 12.18704 | 38829 ft | 477 kts | 90° |
| 2026-05-06 20:08 | 52.34644 | 12.29544 | 38822 ft | 477 kts | 90° |
| 2026-05-06 20:09 | 52.34903 | 12.40393 | 38825 ft | 477 kts | 90° |
| 2026-05-06 20:09 | 52.35152 | 12.51246 | 38824 ft | 478 kts | 90° |
| 2026-05-06 20:10 | 52.35391 | 12.62100 | 38827 ft | 478 kts | 91° |
| 2026-05-06 20:10 | 52.35619 | 12.72890 | 38836 ft | 478 kts | 91° |
| 2026-05-06 20:11 | 52.35839 | 12.83769 | 38832 ft | 478 kts | 91° |
| 2026-05-06 20:11 | 52.36048 | 12.94644 | 38834 ft | 478 kts | 91° |
| 2026-05-06 20:12 | 52.36248 | 13.05512 | 38848 ft | 478 kts | 91° |
| 2026-05-06 20:12 | 52.36438 | 13.16394 | 38849 ft | 478 kts | 91° |
| 2026-05-06 20:13 | 52.36588 | 13.25433 | 38849 ft | 478 kts | 91° |
| 2026-05-06 20:13 | 52.36759 | 13.36300 | 38858 ft | 478 kts | 92° |
| 2026-05-06 20:14 | 52.36921 | 13.47169 | 38847 ft | 477 kts | 92° |
| 2026-05-06 20:14 | 52.37072 | 13.58026 | 38858 ft | 477 kts | 92° |
| 2026-05-06 20:15 | 52.37213 | 13.68873 | 38855 ft | 477 kts | 92° |
| 2026-05-06 20:15 | 52.37344 | 13.79709 | 38850 ft | 476 kts | 92° |
| 2026-05-06 20:16 | 52.37466 | 13.90608 | 38841 ft | 476 kts | 92° |
| 2026-05-06 20:16 | 52.37577 | 14.01442 | 38840 ft | 476 kts | 92° |
| 2026-05-06 20:17 | 52.37677 | 14.12186 | 38834 ft | 475 kts | 92° |
| 2026-05-06 20:17 | 52.37769 | 14.23084 | 38833 ft | 476 kts | 92° |
| 2026-05-06 20:18 | 52.37850 | 14.33911 | 38836 ft | 476 kts | 92° |
| 2026-05-06 20:18 | 52.37922 | 14.44739 | 38833 ft | 476 kts | 92° |
| 2026-05-06 20:19 | 52.37986 | 14.55573 | 38829 ft | 476 kts | 92° |
| 2026-05-06 20:19 | 52.37926 | 14.66402 | 38834 ft | 475 kts | 95° |
| 2026-05-06 20:20 | 52.37627 | 14.77213 | 38828 ft | 476 kts | 96° |
| 2026-05-06 20:20 | 52.37301 | 14.88039 | 38829 ft | 477 kts | 96° |
| 2026-05-06 20:21 | 52.36999 | 14.98883 | 38828 ft | 478 kts | 96° |
| 2026-05-06 20:21 | 52.36704 | 15.09815 | 38825 ft | 478 kts | 95° |
| 2026-05-06 20:22 | 52.36404 | 15.20701 | 38826 ft | 479 kts | 96° |
| 2026-05-06 20:22 | 52.36095 | 15.31528 | 38824 ft | 480 kts | 96° |
| 2026-05-06 20:23 | 52.35771 | 15.42444 | 38827 ft | 481 kts | 96° |
| 2026-05-06 20:23 | 52.35438 | 15.53361 | 38829 ft | 481 kts | 96° |
| 2026-05-06 20:24 | 52.35093 | 15.64295 | 38829 ft | 482 kts | 96° |
| 2026-05-06 20:24 | 52.34738 | 15.75240 | 38829 ft | 482 kts | 96° |
| 2026-05-06 20:25 | 52.34373 | 15.86191 | 38831 ft | 482 kts | 96° |
| 2026-05-06 20:25 | 52.34000 | 15.97072 | 38831 ft | 482 kts | 96° |
| 2026-05-06 20:26 | 52.33615 | 16.08019 | 38830 ft | 483 kts | 96° |
| 2026-05-06 20:26 | 52.33219 | 16.18975 | 38826 ft | 483 kts | 96° |
| 2026-05-06 20:27 | 52.32813 | 16.29937 | 38827 ft | 483 kts | 96° |
| 2026-05-06 20:27 | 52.32397 | 16.40884 | 38830 ft | 483 kts | 97° |
| 2026-05-06 20:28 | 52.31973 | 16.51770 | 38830 ft | 483 kts | 97° |
| 2026-05-06 20:28 | 52.31537 | 16.62708 | 38826 ft | 483 kts | 97° |
| 2026-05-06 20:29 | 52.31091 | 16.73657 | 38830 ft | 483 kts | 97° |
| 2026-05-06 20:29 | 52.30634 | 16.84601 | 38829 ft | 483 kts | 97° |
| 2026-05-06 20:30 | 52.29931 | 17.01005 | 38828 ft | 482 kts | 97° |
| 2026-05-06 20:31 | 52.29452 | 17.11862 | 38820 ft | 482 kts | 97° |
| 2026-05-06 20:31 | 52.28961 | 17.22784 | 38819 ft | 482 kts | 97° |
| 2026-05-06 20:32 | 52.28461 | 17.33695 | 38817 ft | 482 kts | 97° |
| 2026-05-06 20:32 | 52.27950 | 17.44598 | 38817 ft | 481 kts | 97° |
| 2026-05-06 20:33 | 52.27429 | 17.55496 | 38816 ft | 481 kts | 97° |
| 2026-05-06 20:33 | 52.27165 | 17.60949 | 38579 ft | 486 kts | 97° |
| 2026-05-06 20:33 | 52.26896 | 17.66417 | 37852 ft | 490 kts | 98° |
| 2026-05-06 20:33 | 52.26630 | 17.71852 | 38237 ft | 467 kts | 98° |
| 2026-05-06 20:34 | 52.26518 | 17.76868 | 39277 ft | 489 kts | 18° |
| 2026-05-06 20:34 | 52.27429 | 17.81137 | 35585 ft | 386 kts | 85° |
| 2026-05-06 20:34 | 52.27680 | 17.86649 | 31113 ft | 541 kts | 91° |
| 2026-05-06 20:34 | 52.27854 | 17.92545 | 31472 ft | 504 kts | 92° |
| 2026-05-06 20:35 | 52.27727 | 17.98109 | 31364 ft | 481 kts | 103° |
| 2026-05-06 20:35 | 52.26937 | 18.03359 | 30348 ft | 479 kts | 111° |
| 2026-05-06 20:35 | 52.26521 | 18.08781 | 30038 ft | 482 kts | 93° |
| 2026-05-06 20:35 | 52.26949 | 18.14176 | 29767 ft | 478 kts | 83° |
| 2026-05-06 20:36 | 52.27532 | 18.19477 | 29510 ft | 485 kts | 84° |
| 2026-05-06 20:36 | 52.28054 | 18.24980 | 29231 ft | 495 kts | 86° |
| 2026-05-06 20:36 | 52.28508 | 18.30576 | 28950 ft | 498 kts | 87° |
| 2026-05-06 20:36 | 52.28911 | 18.36171 | 28661 ft | 493 kts | 88° |
| 2026-05-06 20:37 | 52.29287 | 18.41714 | 28374 ft | 489 kts | 88° |
| 2026-05-06 20:37 | 52.29654 | 18.47225 | 28094 ft | 487 kts | 88° |
| 2026-05-06 20:37 | 52.30019 | 18.52704 | 27821 ft | 484 kts | 88° |
| 2026-05-06 20:37 | 52.30386 | 18.58151 | 27547 ft | 481 kts | 88° |
| 2026-05-06 20:38 | 52.30751 | 18.63571 | 27280 ft | 479 kts | 88° |
| 2026-05-06 20:38 | 52.31132 | 18.68974 | 27025 ft | 478 kts | 86° |
| 2026-05-06 20:38 | 52.31574 | 18.74346 | 26749 ft | 476 kts | 86° |
| 2026-05-06 20:38 | 52.32037 | 18.79627 | 26494 ft | 475 kts | 85° |
| 2026-05-06 20:39 | 52.32501 | 18.84958 | 26238 ft | 473 kts | 85° |
| 2026-05-06 20:39 | 52.32950 | 18.90288 | 25985 ft | 472 kts | 86° |
| 2026-05-06 20:39 | 52.33385 | 18.95599 | 25731 ft | 470 kts | 86° |
| 2026-05-06 20:39 | 52.33722 | 19.00896 | 25471 ft | 468 kts | 89° |
| 2026-05-06 20:40 | 52.33926 | 19.06189 | 25224 ft | 463 kts | 95° |
| 2026-05-06 20:40 | 52.33652 | 19.11379 | 24985 ft | 454 kts | 104° |
| 2026-05-06 20:40 | 52.32914 | 19.16330 | 24522 ft | 445 kts | 113° |
| 2026-05-06 20:40 | 52.31964 | 19.21101 | 24027 ft | 439 kts | 113° |
| 2026-05-06 20:41 | 52.31006 | 19.25805 | 23604 ft | 433 kts | 113° |
| 2026-05-06 20:41 | 52.30069 | 19.30414 | 23375 ft | 423 kts | 113° |
| 2026-05-06 20:41 | 52.29153 | 19.34935 | 23117 ft | 430 kts | 113° |
| 2026-05-06 20:41 | 52.28210 | 19.39606 | 22845 ft | 436 kts | 113° |
| 2026-05-06 20:42 | 52.27266 | 19.44319 | 22566 ft | 435 kts | 113° |
| 2026-05-06 20:42 | 52.26337 | 19.48987 | 22217 ft | 430 kts | 113° |
| 2026-05-06 20:42 | 52.25419 | 19.53608 | 21680 ft | 425 kts | 113° |
| 2026-05-06 20:42 | 52.24512 | 19.58175 | 21129 ft | 421 kts | 113° |
| 2026-05-06 20:43 | 52.23610 | 19.62696 | 20606 ft | 417 kts | 113° |
| 2026-05-06 20:43 | 52.22717 | 19.67160 | 20064 ft | 413 kts | 113° |
| 2026-05-06 20:43 | 52.21827 | 19.71598 | 19541 ft | 409 kts | 113° |
| 2026-05-06 20:43 | 52.20956 | 19.75929 | 19015 ft | 406 kts | 113° |
| 2026-05-06 20:44 | 52.20077 | 19.80282 | 18503 ft | 403 kts | 113° |
| 2026-05-06 20:44 | 52.19203 | 19.84607 | 17972 ft | 401 kts | 113° |
| 2026-05-06 20:44 | 52.18331 | 19.88906 | 17273 ft | 400 kts | 112° |
| 2026-05-06 20:44 | 52.17443 | 19.93264 | 16168 ft | 410 kts | 112° |
| 2026-05-06 20:45 | 52.16539 | 19.97693 | 15329 ft | 413 kts | 112° |
| 2026-05-06 20:45 | 52.15638 | 20.02114 | 14708 ft | 409 kts | 112° |
| 2026-05-06 20:45 | 52.14749 | 20.06474 | 14145 ft | 404 kts | 112° |
| 2026-05-06 20:45 | 52.13867 | 20.10793 | 13575 ft | 400 kts | 112° |
| 2026-05-06 20:46 | 52.12992 | 20.15062 | 12930 ft | 396 kts | 112° |
| 2026-05-06 20:46 | 52.12122 | 20.19294 | 12311 ft | 392 kts | 112° |
| 2026-05-06 20:46 | 52.11261 | 20.23473 | 11695 ft | 388 kts | 112° |
| 2026-05-06 20:46 | 52.10407 | 20.27610 | 11126 ft | 384 kts | 112° |
| 2026-05-06 20:47 | 52.09571 | 20.31650 | 10583 ft | 380 kts | 112° |
| 2026-05-06 20:47 | 52.08752 | 20.35614 | 10466 ft | 358 kts | 112° |
| 2026-05-06 20:47 | 52.07986 | 20.39329 | 10301 ft | 335 kts | 113° |
| 2026-05-06 20:47 | 52.07266 | 20.42809 | 10173 ft | 315 kts | 114° |
| 2026-05-06 20:48 | 52.06585 | 20.46086 | 10023 ft | 299 kts | 114° |
| 2026-05-06 20:48 | 52.05916 | 20.49277 | 9721 ft | 297 kts | 114° |
| 2026-05-06 20:48 | 52.05252 | 20.52433 | 9443 ft | 293 kts | 114° |
| 2026-05-06 20:48 | 52.04600 | 20.55531 | 8966 ft | 289 kts | 114° |
| 2026-05-06 20:49 | 52.03946 | 20.58630 | 8369 ft | 294 kts | 114° |
| 2026-05-06 20:49 | 52.03282 | 20.61773 | 8080 ft | 292 kts | 114° |
| 2026-05-06 20:49 | 52.02632 | 20.64863 | 7848 ft | 287 kts | 114° |
| 2026-05-06 20:49 | 52.01988 | 20.67918 | 7546 ft | 286 kts | 114° |
| 2026-05-06 20:50 | 52.01365 | 20.70864 | 7236 ft | 285 kts | 113° |
| 2026-05-06 20:50 | 52.00702 | 20.73997 | 6933 ft | 283 kts | 113° |
| 2026-05-06 20:50 | 52.00074 | 20.76970 | 6715 ft | 271 kts | 113° |
| 2026-05-06 20:50 | 51.99477 | 20.79801 | 6497 ft | 261 kts | 113° |
| 2026-05-06 20:51 | 51.98891 | 20.82559 | 6161 ft | 256 kts | 113° |
| 2026-05-06 20:51 | 51.98315 | 20.85265 | 5848 ft | 251 kts | 113° |
| 2026-05-06 20:51 | 51.97751 | 20.87914 | 5574 ft | 248 kts | 113° |
| 2026-05-06 20:51 | 51.97196 | 20.90510 | 5356 ft | 245 kts | 113° |
| 2026-05-06 20:52 | 51.96639 | 20.93117 | 5108 ft | 245 kts | 113° |
| 2026-05-06 20:52 | 51.96077 | 20.95747 | 4856 ft | 243 kts | 112° |
| 2026-05-06 20:52 | 51.95773 | 20.98394 | 4535 ft | 246 kts | 85° |
| 2026-05-06 20:52 | 51.96451 | 21.00904 | 4222 ft | 242 kts | 51° |
| 2026-05-06 20:53 | 51.97509 | 21.02891 | 4133 ft | 225 kts | 49° |
| 2026-05-06 20:53 | 51.98505 | 21.04738 | 3960 ft | 212 kts | 49° |
| 2026-05-06 20:53 | 51.99457 | 21.06523 | 3699 ft | 209 kts | 49° |
| 2026-05-06 20:53 | 52.00469 | 21.08216 | 3413 ft | 205 kts | 30° |
| 2026-05-06 20:54 | 52.01750 | 21.08648 | 3299 ft | 182 kts | 344° |
| 2026-05-06 20:54 | 52.02940 | 21.08107 | 3094 ft | 176 kts | 337° |
| 2026-05-06 20:54 | 52.04076 | 21.07411 | 2872 ft | 173 kts | 334° |
| 2026-05-06 20:54 | 52.05179 | 21.06647 | 2644 ft | 172 kts | 330° |
| 2026-05-06 20:55 | 52.06240 | 21.05771 | 2422 ft | 171 kts | 328° |
| 2026-05-06 20:55 | 52.07270 | 21.04873 | 2197 ft | 170 kts | 328° |
| 2026-05-06 20:55 | 52.08289 | 21.03980 | 1986 ft | 162 kts | 327° |
| 2026-05-06 20:55 | 52.09252 | 21.03135 | 1792 ft | 151 kts | 327° |
| 2026-05-06 20:56 | 52.10184 | 21.02315 | 1569 ft | 151 kts | 328° |
| 2026-05-06 20:56 | 52.11095 | 21.01516 | 1363 ft | 147 kts | 328° |
| 2026-05-06 20:56 | 52.11992 | 21.00721 | 1194 ft | 149 kts | 330° |
| 2026-05-06 20:56 | 52.12916 | 20.99920 | 966 ft | 150 kts | 331° |
| 2026-05-06 20:57 | 52.13837 | 20.99105 | 765 ft | 151 kts | 332° |
| 2026-05-06 20:57 | 52.14770 | 20.98294 | 559 ft | 152 kts | 333° |
| 2026-05-06 20:57 | 52.15709 | 20.97474 | 367 ft | 153 kts | 333° |
| 2026-05-06 20:57 | 52.16493 | 20.96783 | 338 ft | 113 kts | 331° |
| 2026-05-06 20:58 | 52.16981 | 20.96358 | 336 ft | 56 kts | 332° |
| 2026-05-06 20:58 | 52.17241 | 20.96243 | 333 ft | 25 kts | 360° |
| 2026-05-06 20:58 | 52.17366 | 20.96254 | 337 ft | 17 kts | 19° |
| 2026-05-06 20:58 | 52.17431 | 20.96390 | 336 ft | 15 kts | 61° |
| 2026-05-06 20:59 | 52.17479 | 20.96530 | 333 ft | 14 kts | 53° |
| 2026-05-06 20:59 | 52.17536 | 20.96651 | 334 ft | 14 kts | 58° |
| 2026-05-06 20:59 | 52.17591 | 20.96796 | 336 ft | 15 kts | 59° |
| 2026-05-06 20:59 | 52.17622 | 20.96915 | 336 ft | 10 kts | 100° |
| 2026-05-06 21:00 | 52.17560 | 20.97002 | 336 ft | 15 kts | 152° |
| 2026-05-06 21:00 | 52.17497 | 20.97057 | 338 ft | 16 kts | 152° |
| 2026-05-06 21:00 | 52.17391 | 20.97150 | 338 ft | 7 kts | 152° |
| 2026-05-06 21:00 | 52.17384 | 20.97154 | 338 ft | 0 kts | 161° |
| 2026-05-06 21:01 | 52.17381 | 20.97155 | 338 ft | 0 kts | 171° |
| 2026-05-06 21:01 | 52.17370 | 20.97149 | 337 ft | 0 kts | 208° |
| 2026-05-06 21:02 | 52.17345 | 20.97075 | 338 ft | 0 kts | 242° |